sensor_id;sensor_type;location;lat;lon;timestamp;P1;durP1;ratioP1;P2;durP2;ratioP2
9904;SDS011;4991;43.566;27.820;2022-08-19T00:01:46;11.40;;;10.03;;
9904;SDS011;4991;43.566;27.820;2022-08-19T00:04:16;11.30;;;10.20;;
9904;SDS011;4991;43.566;27.820;2022-08-19T00:06:45;10.80;;;9.80;;
9904;SDS011;4991;43.566;27.820;2022-08-19T00:09:13;10.37;;;9.43;;
9904;SDS011;4991;43.566;27.820;2022-08-19T00:11:40;10.53;;;9.53;;
9904;SDS011;4991;43.566;27.820;2022-08-19T00:14:08;14.90;;;10.27;;
9904;SDS011;4991;43.566;27.820;2022-08-19T00:16:39;12.00;;;10.03;;
9904;SDS011;4991;43.566;27.820;2022-08-19T00:19:06;13.33;;;10.00;;
9904;SDS011;4991;43.566;27.820;2022-08-19T00:21:34;9.97;;;8.83;;
9904;SDS011;4991;43.566;27.820;2022-08-19T00:24:05;11.07;;;9.93;;
9904;SDS011;4991;43.566;27.820;2022-08-19T00:26:36;10.50;;;9.47;;
9904;SDS011;4991;43.566;27.820;2022-08-19T00:29:04;10.97;;;9.50;;
9904;SDS011;4991;43.566;27.820;2022-08-19T00:31:31;12.17;;;10.00;;
9904;SDS011;4991;43.566;27.820;2022-08-19T00:33:57;11.23;;;10.13;;
9904;SDS011;4991;43.566;27.820;2022-08-19T00:36:24;11.63;;;10.53;;
9904;SDS011;4991;43.566;27.820;2022-08-19T00:38:49;11.10;;;9.87;;
9904;SDS011;4991;43.566;27.820;2022-08-19T00:41:17;18.03;;;12.10;;
9904;SDS011;4991;43.566;27.820;2022-08-19T00:44:06;13.53;;;10.40;;
9904;SDS011;4991;43.566;27.820;2022-08-19T00:46:36;12.00;;;10.77;;
9904;SDS011;4991;43.566;27.820;2022-08-19T00:51:59;12.30;;;11.10;;
9904;SDS011;4991;43.566;27.820;2022-08-19T00:54:28;14.67;;;10.93;;
9904;SDS011;4991;43.566;27.820;2022-08-19T00:56:57;11.87;;;10.67;;
9904;SDS011;4991;43.566;27.820;2022-08-19T00:59:25;13.20;;;11.57;;
9904;SDS011;4991;43.566;27.820;2022-08-19T01:01:53;12.40;;;11.17;;
9904;SDS011;4991;43.566;27.820;2022-08-19T01:04:20;12.33;;;10.77;;
9904;SDS011;4991;43.566;27.820;2022-08-19T01:06:47;13.17;;;10.67;;
9904;SDS011;4991;43.566;27.820;2022-08-19T01:09:12;28.00;;;14.13;;
9904;SDS011;4991;43.566;27.820;2022-08-19T01:11:39;12.87;;;11.57;;
9904;SDS011;4991;43.566;27.820;2022-08-19T01:14:07;12.60;;;11.33;;
9904;SDS011;4991;43.566;27.820;2022-08-19T01:16:34;12.67;;;11.33;;
9904;SDS011;4991;43.566;27.820;2022-08-19T01:19:00;16.53;;;11.80;;
9904;SDS011;4991;43.566;27.820;2022-08-19T01:24:00;12.57;;;11.33;;
9904;SDS011;4991;43.566;27.820;2022-08-19T01:26:26;13.10;;;11.77;;
9904;SDS011;4991;43.566;27.820;2022-08-19T01:28:54;13.33;;;12.00;;
9904;SDS011;4991;43.566;27.820;2022-08-19T01:31:24;13.60;;;11.03;;
9904;SDS011;4991;43.566;27.820;2022-08-19T01:33:52;13.23;;;11.87;;
9904;SDS011;4991;43.566;27.820;2022-08-19T01:36:30;13.33;;;11.33;;
9904;SDS011;4991;43.566;27.820;2022-08-19T01:39:00;12.87;;;11.43;;
9904;SDS011;4991;43.566;27.820;2022-08-19T01:41:29;13.13;;;11.90;;
9904;SDS011;4991;43.566;27.820;2022-08-19T01:43:54;13.43;;;12.10;;
9904;SDS011;4991;43.566;27.820;2022-08-19T01:46:21;12.67;;;11.37;;
9904;SDS011;4991;43.566;27.820;2022-08-19T01:48:48;13.27;;;11.87;;
9904;SDS011;4991;43.566;27.820;2022-08-19T01:51:14;12.67;;;11.43;;
9904;SDS011;4991;43.566;27.820;2022-08-19T01:53:40;13.37;;;11.27;;
9904;SDS011;4991;43.566;27.820;2022-08-19T01:56:06;16.17;;;11.67;;
9904;SDS011;4991;43.566;27.820;2022-08-19T01:58:36;13.23;;;12.00;;
9904;SDS011;4991;43.566;27.820;2022-08-19T02:01:13;34.27;;;11.57;;
9904;SDS011;4991;43.566;27.820;2022-08-19T02:03:39;12.47;;;11.37;;
9904;SDS011;4991;43.566;27.820;2022-08-19T02:06:05;13.27;;;12.07;;
9904;SDS011;4991;43.566;27.820;2022-08-19T02:08:31;18.20;;;11.97;;
9904;SDS011;4991;43.566;27.820;2022-08-19T02:11:00;14.23;;;11.70;;
9904;SDS011;4991;43.566;27.820;2022-08-19T02:13:27;12.90;;;11.50;;
9904;SDS011;4991;43.566;27.820;2022-08-19T02:15:53;12.87;;;11.47;;
9904;SDS011;4991;43.566;27.820;2022-08-19T02:18:20;12.17;;;10.87;;
9904;SDS011;4991;43.566;27.820;2022-08-19T02:20:47;12.87;;;11.60;;
9904;SDS011;4991;43.566;27.820;2022-08-19T02:23:14;12.20;;;10.97;;
9904;SDS011;4991;43.566;27.820;2022-08-19T02:25:41;12.77;;;11.10;;
9904;SDS011;4991;43.566;27.820;2022-08-19T02:28:07;11.53;;;10.50;;
9904;SDS011;4991;43.566;27.820;2022-08-19T02:30:33;17.93;;;11.97;;
9904;SDS011;4991;43.566;27.820;2022-08-19T02:32:59;12.90;;;11.10;;
9904;SDS011;4991;43.566;27.820;2022-08-19T02:35:24;13.73;;;11.33;;
9904;SDS011;4991;43.566;27.820;2022-08-19T02:37:50;13.03;;;11.43;;
9904;SDS011;4991;43.566;27.820;2022-08-19T02:40:35;13.30;;;12.07;;
9904;SDS011;4991;43.566;27.820;2022-08-19T02:43:03;13.67;;;12.37;;
9904;SDS011;4991;43.566;27.820;2022-08-19T02:45:33;14.37;;;12.70;;
9904;SDS011;4991;43.566;27.820;2022-08-19T02:48:00;18.07;;;11.90;;
9904;SDS011;4991;43.566;27.820;2022-08-19T02:50:26;14.90;;;12.33;;
9904;SDS011;4991;43.566;27.820;2022-08-19T02:52:52;12.87;;;11.67;;
9904;SDS011;4991;43.566;27.820;2022-08-19T02:55:17;14.50;;;12.03;;
9904;SDS011;4991;43.566;27.820;2022-08-19T02:57:45;12.80;;;11.27;;
9904;SDS011;4991;43.566;27.820;2022-08-19T03:00:11;15.60;;;12.30;;
9904;SDS011;4991;43.566;27.820;2022-08-19T03:02:38;15.37;;;11.20;;
9904;SDS011;4991;43.566;27.820;2022-08-19T03:05:05;13.30;;;11.53;;
9904;SDS011;4991;43.566;27.820;2022-08-19T03:07:32;13.00;;;11.70;;
9904;SDS011;4991;43.566;27.820;2022-08-19T03:09:59;13.10;;;11.63;;
9904;SDS011;4991;43.566;27.820;2022-08-19T03:12:25;13.47;;;12.07;;
9904;SDS011;4991;43.566;27.820;2022-08-19T03:14:51;17.17;;;12.43;;
9904;SDS011;4991;43.566;27.820;2022-08-19T03:17:18;22.03;;;12.10;;
9904;SDS011;4991;43.566;27.820;2022-08-19T03:19:43;13.07;;;11.87;;
9904;SDS011;4991;43.566;27.820;2022-08-19T03:22:09;13.60;;;12.20;;
9904;SDS011;4991;43.566;27.820;2022-08-19T03:24:36;14.20;;;12.70;;
9904;SDS011;4991;43.566;27.820;2022-08-19T03:27:02;13.53;;;12.23;;
9904;SDS011;4991;43.566;27.820;2022-08-19T03:29:30;14.23;;;12.83;;
9904;SDS011;4991;43.566;27.820;2022-08-19T03:31:58;13.80;;;12.40;;
9904;SDS011;4991;43.566;27.820;2022-08-19T03:34:28;14.80;;;13.30;;
9904;SDS011;4991;43.566;27.820;2022-08-19T03:36:58;15.27;;;12.90;;
9904;SDS011;4991;43.566;27.820;2022-08-19T03:39:28;14.10;;;12.57;;
9904;SDS011;4991;43.566;27.820;2022-08-19T03:41:54;16.87;;;13.57;;
9904;SDS011;4991;43.566;27.820;2022-08-19T03:44:28;14.93;;;12.97;;
9904;SDS011;4991;43.566;27.820;2022-08-19T03:46:56;14.10;;;12.67;;
9904;SDS011;4991;43.566;27.820;2022-08-19T03:49:27;15.43;;;13.47;;
9904;SDS011;4991;43.566;27.820;2022-08-19T03:51:55;16.70;;;12.67;;
9904;SDS011;4991;43.566;27.820;2022-08-19T03:54:26;15.90;;;14.20;;
9904;SDS011;4991;43.566;27.820;2022-08-19T03:56:55;15.80;;;13.57;;
9904;SDS011;4991;43.566;27.820;2022-08-19T03:59:25;14.67;;;13.17;;
9904;SDS011;4991;43.566;27.820;2022-08-19T04:01:56;14.67;;;12.37;;
9904;SDS011;4991;43.566;27.820;2022-08-19T04:04:23;14.10;;;12.63;;
9904;SDS011;4991;43.566;27.820;2022-08-19T04:06:51;13.43;;;12.03;;
9904;SDS011;4991;43.566;27.820;2022-08-19T04:09:19;14.23;;;12.73;;
9904;SDS011;4991;43.566;27.820;2022-08-19T04:11:47;13.57;;;12.37;;
9904;SDS011;4991;43.566;27.820;2022-08-19T04:14:16;14.03;;;12.53;;
9904;SDS011;4991;43.566;27.820;2022-08-19T04:16:45;13.77;;;12.37;;
9904;SDS011;4991;43.566;27.820;2022-08-19T04:19:13;14.43;;;12.33;;
9904;SDS011;4991;43.566;27.820;2022-08-19T04:21:42;14.00;;;12.37;;
9904;SDS011;4991;43.566;27.820;2022-08-19T04:24:10;16.70;;;12.87;;
9904;SDS011;4991;43.566;27.820;2022-08-19T04:26:37;13.50;;;12.20;;
9904;SDS011;4991;43.566;27.820;2022-08-19T04:29:10;13.73;;;12.40;;
9904;SDS011;4991;43.566;27.820;2022-08-19T04:31:39;14.00;;;12.60;;
9904;SDS011;4991;43.566;27.820;2022-08-19T04:34:07;15.40;;;12.00;;
9904;SDS011;4991;43.566;27.820;2022-08-19T04:36:38;13.57;;;12.27;;
9904;SDS011;4991;43.566;27.820;2022-08-19T04:39:08;12.97;;;11.67;;
9904;SDS011;4991;43.566;27.820;2022-08-19T04:41:36;13.07;;;11.77;;
9904;SDS011;4991;43.566;27.820;2022-08-19T04:44:21;14.00;;;12.17;;
9904;SDS011;4991;43.566;27.820;2022-08-19T04:46:47;14.47;;;12.23;;
9904;SDS011;4991;43.566;27.820;2022-08-19T04:49:14;12.97;;;11.60;;
9904;SDS011;4991;43.566;27.820;2022-08-19T04:51:42;15.23;;;12.00;;
9904;SDS011;4991;43.566;27.820;2022-08-19T04:54:09;13.73;;;11.97;;
9904;SDS011;4991;43.566;27.820;2022-08-19T04:56:36;14.37;;;12.37;;
9904;SDS011;4991;43.566;27.820;2022-08-19T04:59:02;13.97;;;12.47;;
9904;SDS011;4991;43.566;27.820;2022-08-19T05:01:31;14.27;;;12.07;;
9904;SDS011;4991;43.566;27.820;2022-08-19T05:03:58;13.83;;;12.23;;
9904;SDS011;4991;43.566;27.820;2022-08-19T05:06:26;13.40;;;11.97;;
9904;SDS011;4991;43.566;27.820;2022-08-19T05:08:54;15.20;;;12.00;;
9904;SDS011;4991;43.566;27.820;2022-08-19T05:11:21;13.60;;;12.13;;
9904;SDS011;4991;43.566;27.820;2022-08-19T05:13:49;14.90;;;11.77;;
9904;SDS011;4991;43.566;27.820;2022-08-19T05:16:16;15.23;;;11.57;;
9904;SDS011;4991;43.566;27.820;2022-08-19T05:18:44;14.17;;;12.20;;
9904;SDS011;4991;43.566;27.820;2022-08-19T05:21:29;13.00;;;11.53;;
9904;SDS011;4991;43.566;27.820;2022-08-19T05:24:14;13.87;;;10.73;;
9904;SDS011;4991;43.566;27.820;2022-08-19T05:26:41;14.47;;;11.03;;
9904;SDS011;4991;43.566;27.820;2022-08-19T05:29:11;12.53;;;11.30;;
9904;SDS011;4991;43.566;27.820;2022-08-19T05:31:38;12.63;;;9.87;;
9904;SDS011;4991;43.566;27.820;2022-08-19T05:34:05;11.70;;;10.40;;
9904;SDS011;4991;43.566;27.820;2022-08-19T05:36:41;13.10;;;10.53;;
9904;SDS011;4991;43.566;27.820;2022-08-19T05:39:10;12.17;;;9.77;;
9904;SDS011;4991;43.566;27.820;2022-08-19T05:41:42;14.20;;;10.37;;
9904;SDS011;4991;43.566;27.820;2022-08-19T05:44:08;13.93;;;10.13;;
9904;SDS011;4991;43.566;27.820;2022-08-19T05:46:36;12.70;;;10.30;;
9904;SDS011;4991;43.566;27.820;2022-08-19T05:49:03;11.97;;;9.63;;
9904;SDS011;4991;43.566;27.820;2022-08-19T05:51:31;12.47;;;10.13;;
9904;SDS011;4991;43.566;27.820;2022-08-19T05:53:59;18.80;;;11.45;;
9904;SDS011;4991;43.566;27.820;2022-08-19T05:56:25;13.77;;;9.82;;
9904;SDS011;4991;43.566;27.820;2022-08-19T05:58:51;11.23;;;9.90;;
9904;SDS011;4991;43.566;27.820;2022-08-19T06:01:19;11.38;;;10.27;;
9904;SDS011;4991;43.566;27.820;2022-08-19T06:03:45;13.00;;;9.90;;
9904;SDS011;4991;43.566;27.820;2022-08-19T06:06:13;11.98;;;10.73;;
9904;SDS011;4991;43.566;27.820;2022-08-19T06:08:40;12.15;;;9.60;;
9904;SDS011;4991;43.566;27.820;2022-08-19T06:11:24;11.00;;;9.90;;
9904;SDS011;4991;43.566;27.820;2022-08-19T06:14:00;12.13;;;10.32;;
9904;SDS011;4991;43.566;27.820;2022-08-19T06:16:28;12.27;;;9.90;;
9904;SDS011;4991;43.566;27.820;2022-08-19T06:18:57;11.10;;;9.52;;
9904;SDS011;4991;43.566;27.820;2022-08-19T06:21:25;11.88;;;9.93;;
9904;SDS011;4991;43.566;27.820;2022-08-19T06:23:53;11.63;;;9.02;;
9904;SDS011;4991;43.566;27.820;2022-08-19T06:26:20;11.88;;;10.63;;
9904;SDS011;4991;43.566;27.820;2022-08-19T06:28:46;12.65;;;10.55;;
9904;SDS011;4991;43.566;27.820;2022-08-19T06:31:16;10.60;;;9.45;;
9904;SDS011;4991;43.566;27.820;2022-08-19T06:33:46;11.55;;;10.45;;
9904;SDS011;4991;43.566;27.820;2022-08-19T06:36:32;10.35;;;9.30;;
9904;SDS011;4991;43.566;27.820;2022-08-19T06:39:04;13.40;;;9.95;;
9904;SDS011;4991;43.566;27.820;2022-08-19T06:41:38;11.88;;;10.43;;
9904;SDS011;4991;43.566;27.820;2022-08-19T06:44:07;11.43;;;10.30;;
9904;SDS011;4991;43.566;27.820;2022-08-19T06:46:33;12.80;;;9.30;;
9904;SDS011;4991;43.566;27.820;2022-08-19T06:49:00;11.38;;;9.85;;
9904;SDS011;4991;43.566;27.820;2022-08-19T06:51:26;12.63;;;9.07;;
9904;SDS011;4991;43.566;27.820;2022-08-19T06:53:52;11.30;;;10.15;;
9904;SDS011;4991;43.566;27.820;2022-08-19T06:56:29;13.38;;;9.60;;
9904;SDS011;4991;43.566;27.820;2022-08-19T06:59:03;13.93;;;9.45;;
9904;SDS011;4991;43.566;27.820;2022-08-19T07:01:36;10.93;;;9.77;;
9904;SDS011;4991;43.566;27.820;2022-08-19T07:04:04;12.63;;;10.10;;
9904;SDS011;4991;43.566;27.820;2022-08-19T07:06:34;10.82;;;9.30;;
9904;SDS011;4991;43.566;27.820;2022-08-19T07:09:00;13.60;;;9.95;;
9904;SDS011;4991;43.566;27.820;2022-08-19T07:11:26;10.90;;;9.80;;
9904;SDS011;4991;43.566;27.820;2022-08-19T07:13:52;12.18;;;9.45;;
9904;SDS011;4991;43.566;27.820;2022-08-19T07:16:18;13.40;;;9.50;;
9904;SDS011;4991;43.566;27.820;2022-08-19T07:18:46;11.13;;;9.98;;
9904;SDS011;4991;43.566;27.820;2022-08-19T07:21:23;9.38;;;8.35;;
9904;SDS011;4991;43.566;27.820;2022-08-19T07:23:53;10.73;;;9.48;;
9904;SDS011;4991;43.566;27.820;2022-08-19T07:26:25;10.10;;;9.07;;
9904;SDS011;4991;43.566;27.820;2022-08-19T07:28:53;10.38;;;8.88;;
9904;SDS011;4991;43.566;27.820;2022-08-19T07:31:20;11.45;;;8.75;;
9904;SDS011;4991;43.566;27.820;2022-08-19T07:33:48;10.20;;;8.55;;
9904;SDS011;4991;43.566;27.820;2022-08-19T07:36:17;9.93;;;8.95;;
9904;SDS011;4991;43.566;27.820;2022-08-19T07:38:47;9.77;;;8.88;;
9904;SDS011;4991;43.566;27.820;2022-08-19T07:41:16;11.43;;;8.80;;
9904;SDS011;4991;43.566;27.820;2022-08-19T07:43:44;10.38;;;8.35;;
9904;SDS011;4991;43.566;27.820;2022-08-19T07:46:11;9.00;;;8.07;;
9904;SDS011;4991;43.566;27.820;2022-08-19T07:48:39;10.68;;;8.93;;
9904;SDS011;4991;43.566;27.820;2022-08-19T07:51:07;9.30;;;7.82;;
9904;SDS011;4991;43.566;27.820;2022-08-19T07:53:35;15.43;;;8.88;;
9904;SDS011;4991;43.566;27.820;2022-08-19T07:56:02;10.18;;;9.18;;
9904;SDS011;4991;43.566;27.820;2022-08-19T07:58:31;11.77;;;8.15;;
9904;SDS011;4991;43.566;27.820;2022-08-19T08:00:58;11.05;;;8.40;;
9904;SDS011;4991;43.566;27.820;2022-08-19T08:03:28;17.42;;;9.55;;
9904;SDS011;4991;43.566;27.820;2022-08-19T08:06:14;12.68;;;8.63;;
9904;SDS011;4991;43.566;27.820;2022-08-19T08:09:01;12.70;;;8.50;;
9904;SDS011;4991;43.566;27.820;2022-08-19T08:12:00;10.95;;;7.82;;
9904;SDS011;4991;43.566;27.820;2022-08-19T08:14:38;12.10;;;9.35;;
9904;SDS011;4991;43.566;27.820;2022-08-19T08:17:08;8.95;;;7.72;;
9904;SDS011;4991;43.566;27.820;2022-08-19T08:19:35;9.43;;;7.00;;
9904;SDS011;4991;43.566;27.820;2022-08-19T08:22:05;9.90;;;7.53;;
9904;SDS011;4991;43.566;27.820;2022-08-19T08:24:31;12.02;;;8.82;;
9904;SDS011;4991;43.566;27.820;2022-08-19T08:26:59;11.48;;;8.63;;
9904;SDS011;4991;43.566;27.820;2022-08-19T08:29:30;11.88;;;7.47;;
9904;SDS011;4991;43.566;27.820;2022-08-19T08:31:57;12.85;;;7.50;;
9904;SDS011;4991;43.566;27.820;2022-08-19T08:34:23;14.70;;;7.97;;
9904;SDS011;4991;43.566;27.820;2022-08-19T08:36:48;10.88;;;7.63;;
9904;SDS011;4991;43.566;27.820;2022-08-19T08:39:17;11.25;;;7.22;;
9904;SDS011;4991;43.566;27.820;2022-08-19T08:44:43;10.90;;;7.25;;
9904;SDS011;4991;43.566;27.820;2022-08-19T08:47:19;12.70;;;7.60;;
9904;SDS011;4991;43.566;27.820;2022-08-19T08:49:59;8.05;;;7.00;;
9904;SDS011;4991;43.566;27.820;2022-08-19T08:52:30;9.82;;;7.95;;
9904;SDS011;4991;43.566;27.820;2022-08-19T08:55:03;9.73;;;7.30;;
9904;SDS011;4991;43.566;27.820;2022-08-19T09:00:22;12.48;;;8.02;;
9904;SDS011;4991;43.566;27.820;2022-08-19T09:02:52;12.57;;;7.72;;
9904;SDS011;4991;43.566;27.820;2022-08-19T09:05:19;11.48;;;7.97;;
9904;SDS011;4991;43.566;27.820;2022-08-19T09:11:03;11.13;;;6.85;;
9904;SDS011;4991;43.566;27.820;2022-08-19T09:16:06;10.98;;;7.50;;
9904;SDS011;4991;43.566;27.820;2022-08-19T09:18:42;9.05;;;6.85;;
9904;SDS011;4991;43.566;27.820;2022-08-19T09:21:20;10.02;;;7.70;;
9904;SDS011;4991;43.566;27.820;2022-08-19T09:23:48;9.55;;;7.65;;
9904;SDS011;4991;43.566;27.820;2022-08-19T09:26:16;9.00;;;7.13;;
9904;SDS011;4991;43.566;27.820;2022-08-19T09:28:44;7.82;;;7.03;;
9904;SDS011;4991;43.566;27.820;2022-08-19T09:31:12;10.88;;;8.00;;
9904;SDS011;4991;43.566;27.820;2022-08-19T09:33:50;10.07;;;7.03;;
9904;SDS011;4991;43.566;27.820;2022-08-19T09:36:18;8.57;;;6.80;;
9904;SDS011;4991;43.566;27.820;2022-08-19T09:38:47;9.77;;;7.10;;
9904;SDS011;4991;43.566;27.820;2022-08-19T09:41:14;8.80;;;6.70;;
9904;SDS011;4991;43.566;27.820;2022-08-19T09:43:44;7.68;;;6.82;;
9904;SDS011;4991;43.566;27.820;2022-08-19T09:46:11;11.82;;;7.07;;
9904;SDS011;4991;43.566;27.820;2022-08-19T09:48:38;12.65;;;7.57;;
9904;SDS011;4991;43.566;27.820;2022-08-19T09:51:12;8.23;;;6.82;;
9904;SDS011;4991;43.566;27.820;2022-08-19T09:53:41;12.77;;;6.63;;
9904;SDS011;4991;43.566;27.820;2022-08-19T09:56:10;9.02;;;6.60;;
9904;SDS011;4991;43.566;27.820;2022-08-19T09:58:38;8.68;;;6.95;;
9904;SDS011;4991;43.566;27.820;2022-08-19T10:01:06;9.73;;;6.25;;
9904;SDS011;4991;43.566;27.820;2022-08-19T10:03:35;8.30;;;6.25;;
9904;SDS011;4991;43.566;27.820;2022-08-19T10:06:03;7.00;;;6.18;;
9904;SDS011;4991;43.566;27.820;2022-08-19T10:08:32;13.70;;;6.00;;
9904;SDS011;4991;43.566;27.820;2022-08-19T10:11:00;10.63;;;6.43;;
9904;SDS011;4991;43.566;27.820;2022-08-19T10:13:27;6.97;;;6.00;;
9904;SDS011;4991;43.566;27.820;2022-08-19T10:16:02;11.50;;;5.57;;
9904;SDS011;4991;43.566;27.820;2022-08-19T10:18:31;13.52;;;6.18;;
9904;SDS011;4991;43.566;27.820;2022-08-19T10:21:07;16.55;;;6.88;;
9904;SDS011;4991;43.566;27.820;2022-08-19T10:23:39;9.05;;;5.38;;
9904;SDS011;4991;43.566;27.820;2022-08-19T10:26:10;7.72;;;5.60;;
9904;SDS011;4991;43.566;27.820;2022-08-19T10:28:37;10.52;;;6.15;;
9904;SDS011;4991;43.566;27.820;2022-08-19T10:31:04;10.02;;;6.20;;
9904;SDS011;4991;43.566;27.820;2022-08-19T10:33:35;11.52;;;6.50;;
9904;SDS011;4991;43.566;27.820;2022-08-19T10:36:06;7.07;;;5.30;;
9904;SDS011;4991;43.566;27.820;2022-08-19T10:38:34;7.97;;;6.22;;
9904;SDS011;4991;43.566;27.820;2022-08-19T10:41:08;5.93;;;5.32;;
9904;SDS011;4991;43.566;27.820;2022-08-19T10:43:39;8.70;;;5.50;;
9904;SDS011;4991;43.566;27.820;2022-08-19T10:46:06;11.25;;;5.65;;
9904;SDS011;4991;43.566;27.820;2022-08-19T10:48:36;10.20;;;6.10;;
9904;SDS011;4991;43.566;27.820;2022-08-19T10:51:02;14.85;;;7.22;;
9904;SDS011;4991;43.566;27.820;2022-08-19T10:53:47;7.38;;;5.82;;
9904;SDS011;4991;43.566;27.820;2022-08-19T10:56:13;8.80;;;5.80;;
9904;SDS011;4991;43.566;27.820;2022-08-19T10:58:58;8.15;;;5.70;;
9904;SDS011;4991;43.566;27.820;2022-08-19T11:01:26;8.65;;;5.18;;
9904;SDS011;4991;43.566;27.820;2022-08-19T11:03:56;7.80;;;5.95;;
9904;SDS011;4991;43.566;27.820;2022-08-19T11:06:22;9.65;;;6.03;;
9904;SDS011;4991;43.566;27.820;2022-08-19T11:08:51;7.72;;;5.85;;
9904;SDS011;4991;43.566;27.820;2022-08-19T11:11:17;12.52;;;5.47;;
9904;SDS011;4991;43.566;27.820;2022-08-19T11:13:43;8.30;;;6.10;;
9904;SDS011;4991;43.566;27.820;2022-08-19T11:16:15;11.60;;;6.25;;
9904;SDS011;4991;43.566;27.820;2022-08-19T11:18:45;10.45;;;5.65;;
9904;SDS011;4991;43.566;27.820;2022-08-19T11:21:26;7.38;;;6.35;;
9904;SDS011;4991;43.566;27.820;2022-08-19T11:23:57;7.68;;;5.78;;
9904;SDS011;4991;43.566;27.820;2022-08-19T11:26:25;15.25;;;6.13;;
9904;SDS011;4991;43.566;27.820;2022-08-19T11:28:51;7.80;;;7.10;;
9904;SDS011;4991;43.566;27.820;2022-08-19T11:31:20;7.63;;;5.78;;
9904;SDS011;4991;43.566;27.820;2022-08-19T11:33:48;8.05;;;5.25;;
9904;SDS011;4991;43.566;27.820;2022-08-19T11:36:19;11.75;;;5.97;;
9904;SDS011;4991;43.566;27.820;2022-08-19T11:38:47;7.00;;;4.95;;
9904;SDS011;4991;43.566;27.820;2022-08-19T11:41:14;7.00;;;5.25;;
9904;SDS011;4991;43.566;27.820;2022-08-19T11:43:41;6.45;;;5.72;;
9904;SDS011;4991;43.566;27.820;2022-08-19T11:46:08;10.25;;;5.75;;
9904;SDS011;4991;43.566;27.820;2022-08-19T11:48:37;9.30;;;5.70;;
9904;SDS011;4991;43.566;27.820;2022-08-19T11:51:05;7.40;;;5.70;;
9904;SDS011;4991;43.566;27.820;2022-08-19T11:53:47;6.25;;;5.63;;
9904;SDS011;4991;43.566;27.820;2022-08-19T11:56:15;11.32;;;6.07;;
9904;SDS011;4991;43.566;27.820;2022-08-19T11:58:40;8.52;;;5.18;;
9904;SDS011;4991;43.566;27.820;2022-08-19T12:01:10;10.77;;;6.40;;
9904;SDS011;4991;43.566;27.820;2022-08-19T12:03:38;14.20;;;6.10;;
9904;SDS011;4991;43.566;27.820;2022-08-19T12:06:05;10.57;;;5.30;;
9904;SDS011;4991;43.566;27.820;2022-08-19T12:08:33;12.60;;;5.80;;
9904;SDS011;4991;43.566;27.820;2022-08-19T12:10:59;10.38;;;5.18;;
9904;SDS011;4991;43.566;27.820;2022-08-19T12:13:28;9.57;;;5.55;;
9904;SDS011;4991;43.566;27.820;2022-08-19T12:15:56;7.07;;;5.22;;
9904;SDS011;4991;43.566;27.820;2022-08-19T12:18:25;11.93;;;6.22;;
9904;SDS011;4991;43.566;27.820;2022-08-19T12:20:52;6.75;;;4.68;;
9904;SDS011;4991;43.566;27.820;2022-08-19T12:23:21;12.30;;;5.78;;
9904;SDS011;4991;43.566;27.820;2022-08-19T12:25:48;8.88;;;5.80;;
9904;SDS011;4991;43.566;27.820;2022-08-19T12:28:17;9.13;;;5.10;;
9904;SDS011;4991;43.566;27.820;2022-08-19T12:30:48;8.68;;;5.47;;
9904;SDS011;4991;43.566;27.820;2022-08-19T12:33:18;10.73;;;5.57;;
9904;SDS011;4991;43.566;27.820;2022-08-19T12:35:49;16.00;;;6.40;;
9904;SDS011;4991;43.566;27.820;2022-08-19T12:38:15;17.60;;;7.15;;
9904;SDS011;4991;43.566;27.820;2022-08-19T12:40:43;9.75;;;5.47;;
9904;SDS011;4991;43.566;27.820;2022-08-19T12:43:11;7.53;;;5.03;;
9904;SDS011;4991;43.566;27.820;2022-08-19T12:45:37;8.98;;;5.88;;
9904;SDS011;4991;43.566;27.820;2022-08-19T12:48:03;8.70;;;5.72;;
9904;SDS011;4991;43.566;27.820;2022-08-19T12:50:29;7.75;;;5.53;;
9904;SDS011;4991;43.566;27.820;2022-08-19T12:52:56;5.90;;;4.93;;
9904;SDS011;4991;43.566;27.820;2022-08-19T12:55:22;11.75;;;5.82;;
9904;SDS011;4991;43.566;27.820;2022-08-19T12:57:49;10.90;;;5.07;;
9904;SDS011;4991;43.566;27.820;2022-08-19T13:00:17;8.30;;;5.70;;
9904;SDS011;4991;43.566;27.820;2022-08-19T13:02:47;8.38;;;5.38;;
9904;SDS011;4991;43.566;27.820;2022-08-19T13:05:22;11.02;;;5.15;;
9904;SDS011;4991;43.566;27.820;2022-08-19T13:07:52;9.70;;;5.38;;
9904;SDS011;4991;43.566;27.820;2022-08-19T13:10:21;7.28;;;4.90;;
9904;SDS011;4991;43.566;27.820;2022-08-19T13:12:49;7.53;;;4.80;;
9904;SDS011;4991;43.566;27.820;2022-08-19T13:15:17;5.75;;;4.90;;
9904;SDS011;4991;43.566;27.820;2022-08-19T13:17:47;10.98;;;5.47;;
9904;SDS011;4991;43.566;27.820;2022-08-19T13:20:14;10.27;;;5.00;;
9904;SDS011;4991;43.566;27.820;2022-08-19T13:22:41;11.82;;;5.47;;
9904;SDS011;4991;43.566;27.820;2022-08-19T13:25:08;8.48;;;5.22;;
9904;SDS011;4991;43.566;27.820;2022-08-19T13:27:34;9.13;;;5.72;;
9904;SDS011;4991;43.566;27.820;2022-08-19T13:30:01;9.77;;;5.30;;
9904;SDS011;4991;43.566;27.820;2022-08-19T13:32:47;10.52;;;5.50;;
9904;SDS011;4991;43.566;27.820;2022-08-19T13:35:32;12.50;;;5.82;;
9904;SDS011;4991;43.566;27.820;2022-08-19T13:37:58;12.52;;;5.05;;
9904;SDS011;4991;43.566;27.820;2022-08-19T13:40:24;8.45;;;6.47;;
9904;SDS011;4991;43.566;27.820;2022-08-19T13:42:52;7.70;;;5.70;;
9904;SDS011;4991;43.566;27.820;2022-08-19T13:45:24;9.30;;;5.57;;
9904;SDS011;4991;43.566;27.820;2022-08-19T13:47:52;8.05;;;5.35;;
9904;SDS011;4991;43.566;27.820;2022-08-19T13:50:21;12.68;;;6.15;;
9904;SDS011;4991;43.566;27.820;2022-08-19T13:52:53;13.75;;;5.95;;
9904;SDS011;4991;43.566;27.820;2022-08-19T13:55:20;9.10;;;5.68;;
9904;SDS011;4991;43.566;27.820;2022-08-19T13:57:50;7.53;;;5.78;;
9904;SDS011;4991;43.566;27.820;2022-08-19T14:00:18;8.68;;;6.13;;
9904;SDS011;4991;43.566;27.820;2022-08-19T14:02:46;7.28;;;5.47;;
9904;SDS011;4991;43.566;27.820;2022-08-19T14:05:14;7.13;;;5.20;;
9904;SDS011;4991;43.566;27.820;2022-08-19T14:07:41;10.02;;;5.63;;
9904;SDS011;4991;43.566;27.820;2022-08-19T14:10:09;11.73;;;5.63;;
9904;SDS011;4991;43.566;27.820;2022-08-19T14:12:36;8.07;;;5.20;;
9904;SDS011;4991;43.566;27.820;2022-08-19T14:15:03;9.38;;;5.30;;
9904;SDS011;4991;43.566;27.820;2022-08-19T14:17:30;14.77;;;5.65;;
9904;SDS011;4991;43.566;27.820;2022-08-19T14:19:59;11.50;;;5.38;;
9904;SDS011;4991;43.566;27.820;2022-08-19T14:22:35;9.68;;;5.10;;
9904;SDS011;4991;43.566;27.820;2022-08-19T14:25:03;9.02;;;5.63;;
9904;SDS011;4991;43.566;27.820;2022-08-19T14:27:32;7.85;;;5.85;;
9904;SDS011;4991;43.566;27.820;2022-08-19T14:30:01;9.43;;;6.55;;
9904;SDS011;4991;43.566;27.820;2022-08-19T14:32:32;8.70;;;6.55;;
9904;SDS011;4991;43.566;27.820;2022-08-19T14:35:00;8.50;;;6.53;;
9904;SDS011;4991;43.566;27.820;2022-08-19T14:37:26;17.58;;;6.40;;
9904;SDS011;4991;43.566;27.820;2022-08-19T14:39:52;9.57;;;6.15;;
9904;SDS011;4991;43.566;27.820;2022-08-19T14:42:19;7.60;;;6.60;;
9904;SDS011;4991;43.566;27.820;2022-08-19T14:44:45;12.25;;;6.50;;
9904;SDS011;4991;43.566;27.820;2022-08-19T14:47:11;13.82;;;6.97;;
9904;SDS011;4991;43.566;27.820;2022-08-19T14:49:37;10.88;;;9.02;;
9904;SDS011;4991;43.566;27.820;2022-08-19T14:52:03;8.32;;;6.72;;
9904;SDS011;4991;43.566;27.820;2022-08-19T14:54:29;10.48;;;6.90;;
9904;SDS011;4991;43.566;27.820;2022-08-19T14:56:55;9.63;;;6.82;;
9904;SDS011;4991;43.566;27.820;2022-08-19T14:59:20;9.43;;;7.47;;
9904;SDS011;4991;43.566;27.820;2022-08-19T15:01:46;9.05;;;6.68;;
9904;SDS011;4991;43.566;27.820;2022-08-19T15:04:11;10.77;;;6.55;;
9904;SDS011;4991;43.566;27.820;2022-08-19T15:06:38;10.02;;;7.20;;
9904;SDS011;4991;43.566;27.820;2022-08-19T15:09:04;10.43;;;6.93;;
9904;SDS011;4991;43.566;27.820;2022-08-19T15:11:30;13.88;;;8.45;;
9904;SDS011;4991;43.566;27.820;2022-08-19T15:13:57;10.20;;;7.90;;